Time;durP1;ratioP1;P1;durP2;ratioP2;P2;SDS_P1;SDS_P2;PMS_P1;PMS_P2;Temp;Humidity;BMP_temperature;BMP_pressure;BME280_temperature;BME280_humidity;BME280_pressure;Samples;Min_cycle;Max_cycle;Signal;HPM_P1;HPM_P2
2021/12/23 00:02:06;;;;;;;23.15;14.23;;;;;;;;;;5120133;27;20051;-69
2021/12/23 00:04:32;;;;;;;25.92;14.32;;;;;;;;;;5097401;28;20055;-68
2021/12/23 00:06:59;;;;;;;23.58;14.27;;;;;;;;;;5129957;27;20062;-69
2021/12/23 00:09:36;;;;;;;20.50;13.07;;;;;;;;;;5133494;27;20090;-69
2021/12/23 00:12:03;;;;;;;19.48;13.23;;;;;;;;;;5133082;27;20398;-69
2021/12/23 00:14:31;;;;;;;26.35;15.15;;;;;;;;;;5121982;27;20051;-69
2021/12/23 00:17:19;;;;;;;22.42;13.40;;;;;;;;;;5126240;27;20504;-69
2021/12/23 00:23:21;;;;;;;23.50;14.02;;;;;;;;;;5127377;27;20529;-70
2021/12/23 00:25:15;;;;;;;21.15;14.15;;;;;;;;;;5130062;27;20134;-70
2021/12/23 00:27:41;;;;;;;21.42;13.43;;;;;;;;;;5116973;27;20052;-69
2021/12/23 00:30:08;;;;;;;21.15;14.05;;;;;;;;;;5132108;27;20048;-69
2021/12/23 00:32:35;;;;;;;28.52;14.15;;;;;;;;;;5133603;27;20052;-69
2021/12/23 00:35:01;;;;;;;24.88;13.52;;;;;;;;;;5119236;27;20056;-70
2021/12/23 00:37:35;;;;;;;22.75;13.55;;;;;;;;;;5134309;27;20058;-69
2021/12/23 00:40:03;;;;;;;24.13;12.45;;;;;;;;;;5127751;27;20062;-69
2021/12/23 00:42:31;;;;;;;21.77;13.73;;;;;;;;;;5121034;27;20055;-69
2021/12/23 00:44:58;;;;;;;24.83;15.18;;;;;;;;;;5128276;27;20074;-69
2021/12/23 00:47:24;;;;;;;22.38;13.63;;;;;;;;;;5135432;27;20066;-69
2021/12/23 00:49:50;;;;;;;22.35;14.35;;;;;;;;;;5125011;27;20402;-69
2021/12/23 00:52:23;;;;;;;20.10;13.75;;;;;;;;;;5128292;27;20505;-70
2021/12/23 00:54:49;;;;;;;23.63;13.27;;;;;;;;;;5118188;27;20056;-70
2021/12/23 00:57:16;;;;;;;18.65;13.13;;;;;;;;;;5128545;27;20043;-70
2021/12/23 00:59:42;;;;;;;22.42;13.23;;;;;;;;;;5122143;27;20403;-69
2021/12/23 01:02:10;;;;;;;21.35;12.98;;;;;;;;;;5122554;27;20526;-69
2021/12/23 01:04:37;;;;;;;25.38;13.30;;;;;;;;;;5125816;27;20051;-69
2021/12/23 01:07:04;;;;;;;19.65;12.82;;;;;;;;;;5134227;27;20077;-70
2021/12/23 01:09:30;;;;;;;22.00;13.25;;;;;;;;;;5134433;27;20525;-69
2021/12/23 01:11:57;;;;;;;21.08;13.20;;;;;;;;;;5132159;27;20419;-69
2021/12/23 01:17:12;;;;;;;24.40;13.77;;;;;;;;;;5124793;27;20483;-69
2021/12/23 01:19:41;;;;;;;20.63;13.52;;;;;;;;;;5117120;27;20044;-69
2021/12/23 01:22:08;;;;;;;21.38;13.10;;;;;;;;;;5132151;27;20047;-69
2021/12/23 01:24:35;;;;;;;22.80;13.35;;;;;;;;;;5132731;27;20044;-69
2021/12/23 01:27:01;;;;;;;22.25;14.23;;;;;;;;;;5133870;27;20491;-70
2021/12/23 01:29:28;;;;;;;20.05;13.13;;;;;;;;;;5133781;27;20058;-70
2021/12/23 01:31:54;;;;;;;20.25;14.18;;;;;;;;;;5133983;27;20044;-69
2021/12/23 01:34:20;;;;;;;19.58;13.20;;;;;;;;;;5129982;27;20052;-69
2021/12/23 01:36:47;;;;;;;19.27;13.07;;;;;;;;;;5121371;27;20177;-69
2021/12/23 01:39:14;;;;;;;21.98;13.68;;;;;;;;;;5121424;27;20051;-69
2021/12/23 01:41:40;;;;;;;24.83;13.20;;;;;;;;;;5123040;27;20051;-69
2021/12/23 01:44:07;;;;;;;21.02;13.15;;;;;;;;;;5126917;27;20179;-69
2021/12/23 01:46:33;;;;;;;26.02;14.30;;;;;;;;;;5134014;27;20051;-69
2021/12/23 01:48:59;;;;;;;22.58;13.80;;;;;;;;;;5115945;27;20044;-69
2021/12/23 01:51:26;;;;;;;23.30;13.00;;;;;;;;;;5125265;27;20048;-69
2021/12/23 01:53:52;;;;;;;20.85;12.50;;;;;;;;;;5133663;27;20503;-68
2021/12/23 01:56:18;;;;;;;24.83;14.98;;;;;;;;;;5133173;27;20051;-68
2021/12/23 01:58:45;;;;;;;25.50;14.60;;;;;;;;;;5129167;27;20058;-69
2021/12/23 02:01:12;;;;;;;20.85;12.90;;;;;;;;;;5114993;27;20063;-69
2021/12/23 02:03:39;;;;;;;19.88;12.88;;;;;;;;;;5133448;27;20134;-69
2021/12/23 02:06:05;;;;;;;24.95;13.70;;;;;;;;;;5134024;27;20516;-69
2021/12/23 02:08:33;;;;;;;22.35;13.38;;;;;;;;;;5132602;27;20451;-69
2021/12/23 02:10:59;;;;;;;23.20;13.38;;;;;;;;;;5137332;27;20054;-69
2021/12/23 02:13:26;;;;;;;23.90;13.13;;;;;;;;;;5126062;27;20134;-69
2021/12/23 02:15:52;;;;;;;23.00;14.05;;;;;;;;;;5126986;27;20066;-69
2021/12/23 02:18:22;;;;;;;23.52;14.60;;;;;;;;;;5131249;27;20058;-69
2021/12/23 02:20:48;;;;;;;23.77;13.63;;;;;;;;;;5136880;27;20062;-70
2021/12/23 02:23:14;;;;;;;23.85;14.38;;;;;;;;;;5121016;27;20082;-69
2021/12/23 02:25:41;;;;;;;25.15;14.90;;;;;;;;;;5128129;27;20063;-69
2021/12/23 02:28:08;;;;;;;20.48;13.13;;;;;;;;;;5127752;27;20062;-69
2021/12/23 02:30:36;;;;;;;25.13;14.55;;;;;;;;;;5127114;27;20047;-69
2021/12/23 02:33:03;;;;;;;20.58;13.75;;;;;;;;;;5134242;27;20099;-69
2021/12/23 02:35:30;;;;;;;23.73;14.23;;;;;;;;;;5116295;28;20144;-70
2021/12/23 02:37:57;;;;;;;22.73;14.35;;;;;;;;;;5136146;27;20042;-69
2021/12/23 02:40:30;;;;;;;22.27;13.77;;;;;;;;;;5129158;27;20059;-69
2021/12/23 02:43:06;;;;;;;20.60;13.20;;;;;;;;;;5129905;27;20054;-69
2021/12/23 02:45:32;;;;;;;21.77;13.70;;;;;;;;;;5132138;27;20423;-69
2021/12/23 02:47:58;;;;;;;26.63;15.10;;;;;;;;;;5136497;27;20052;-69
2021/12/23 02:50:24;;;;;;;23.75;15.07;;;;;;;;;;5128703;27;20047;-69
2021/12/23 02:52:51;;;;;;;29.15;14.52;;;;;;;;;;5136307;27;20055;-69
2021/12/23 02:55:17;;;;;;;20.98;14.70;;;;;;;;;;5128913;27;20408;-69
2021/12/23 02:57:44;;;;;;;21.55;13.75;;;;;;;;;;5136863;27;20396;-69
2021/12/23 03:00:10;;;;;;;21.85;14.02;;;;;;;;;;5127823;27;20505;-69
2021/12/23 03:02:38;;;;;;;22.95;13.30;;;;;;;;;;5128446;27;20048;-69
2021/12/23 03:05:05;;;;;;;27.08;15.65;;;;;;;;;;5127665;27;20090;-68
2021/12/23 03:07:31;;;;;;;24.52;15.60;;;;;;;;;;5131876;27;20054;-69
2021/12/23 03:09:57;;;;;;;21.05;13.88;;;;;;;;;;5133789;27;20063;-69
2021/12/23 03:12:24;;;;;;;23.55;14.25;;;;;;;;;;5119687;27;20052;-69
2021/12/23 03:14:50;;;;;;;24.02;14.75;;;;;;;;;;5125734;27;20058;-68
2021/12/23 03:17:16;;;;;;;23.20;14.95;;;;;;;;;;5136142;27;20054;-68
2021/12/23 03:19:42;;;;;;;21.80;14.27;;;;;;;;;;5129085;27;20507;-69
2021/12/23 03:22:09;;;;;;;21.42;13.88;;;;;;;;;;5133693;27;20048;-70
2021/12/23 03:24:35;;;;;;;23.73;14.25;;;;;;;;;;5135611;27;20483;-69
2021/12/23 03:27:02;;;;;;;21.40;14.07;;;;;;;;;;5135920;27;20051;-69
2021/12/23 03:29:28;;;;;;;23.58;14.45;;;;;;;;;;5136335;27;20052;-68
2021/12/23 03:31:55;;;;;;;25.48;15.95;;;;;;;;;;5126874;27;20531;-69
2021/12/23 03:34:21;;;;;;;24.15;15.13;;;;;;;;;;5133870;27;20055;-69
2021/12/23 03:36:47;;;;;;;20.42;14.35;;;;;;;;;;5130196;27;20059;-68
2021/12/23 03:39:13;;;;;;;21.73;13.98;;;;;;;;;;5125115;27;20060;-69
2021/12/23 03:41:40;;;;;;;24.45;14.90;;;;;;;;;;5128384;27;20059;-68
2021/12/23 03:44:06;;;;;;;22.02;14.98;;;;;;;;;;5131494;27;20058;-69
2021/12/23 03:46:32;;;;;;;21.80;14.07;;;;;;;;;;5131821;27;20507;-69
2021/12/23 03:48:59;;;;;;;24.85;15.85;;;;;;;;;;5125908;27;20110;-69
2021/12/23 03:51:25;;;;;;;24.60;14.48;;;;;;;;;;5129203;27;20055;-69
2021/12/23 03:53:51;;;;;;;21.90;14.70;;;;;;;;;;5135623;27;20051;-69
2021/12/23 03:56:18;;;;;;;25.95;15.73;;;;;;;;;;5133302;27;20191;-68
2021/12/23 03:58:45;;;;;;;24.90;15.35;;;;;;;;;;5119775;27;20066;-69
2021/12/23 04:01:11;;;;;;;21.05;14.40;;;;;;;;;;5123580;27;20058;-71
2021/12/23 04:03:38;;;;;;;29.25;14.93;;;;;;;;;;5125549;27;20047;-68
2021/12/23 04:06:04;;;;;;;21.70;14.23;;;;;;;;;;5115813;27;20056;-68
2021/12/23 04:08:30;;;;;;;25.55;15.00;;;;;;;;;;5131816;27;20056;-70
2021/12/23 04:10:59;;;;;;;24.85;15.93;;;;;;;;;;5133899;27;20062;-70
2021/12/23 04:13:26;;;;;;;24.38;15.30;;;;;;;;;;5134594;27;20051;-70
2021/12/23 04:15:52;;;;;;;23.70;16.13;;;;;;;;;;5118602;27;20503;-68
2021/12/23 04:18:19;;;;;;;32.13;16.08;;;;;;;;;;5118392;27;20134;-69
2021/12/23 04:20:54;;;;;;;23.38;14.73;;;;;;;;;;5128808;27;20075;-68
2021/12/23 04:23:21;;;;;;;;;;;;;;;;;;5120085;27;20051;-69
2021/12/23 04:25:47;;;;;;;;;;;;;;;;;;5133327;27;45122;-69
2021/12/23 04:28:13;;;;;;;;;;;;;;;;;;5128103;27;46465;-69
2021/12/23 04:30:39;;;;;;;;;;;;;;;;;;5132684;27;43077;-68
2021/12/23 04:33:06;;;;;;;24.50;14.40;;;;;;;;;;5131199;27;46021;-71
2021/12/23 04:35:32;;;;;;;28.77;16.13;;;;;;;;;;5121235;27;20052;-69
2021/12/23 04:37:58;;;;;;;25.25;15.75;;;;;;;;;;5120834;27;20052;-69
2021/12/23 04:40:25;;;;;;;25.35;15.90;;;;;;;;;;5130747;27;20055;-68
2021/12/23 04:42:51;;;;;;;24.80;16.65;;;;;;;;;;5120530;27;20055;-69
2021/12/23 04:45:17;;;;;;;24.65;15.50;;;;;;;;;;5132106;27;20051;-69
2021/12/23 04:47:44;;;;;;;26.48;17.10;;;;;;;;;;5114599;28;20055;-69
2021/12/23 04:50:11;;;;;;;26.33;15.45;;;;;;;;;;5131642;27;20054;-69
2021/12/23 04:52:38;;;;;;;28.83;15.50;;;;;;;;;;5133924;27;20062;-69
2021/12/23 04:55:05;;;;;;;26.55;14.80;;;;;;;;;;5132418;27;20105;-69
2021/12/23 04:57:31;;;;;;;27.40;17.15;;;;;;;;;;5131127;27;20105;-68
2021/12/23 04:59:58;;;;;;;28.30;17.25;;;;;;;;;;5129122;27;20520;-70
2021/12/23 05:02:24;;;;;;;28.52;17.98;;;;;;;;;;5132202;27;20048;-69
2021/12/23 05:04:51;;;;;;;31.67;17.30;;;;;;;;;;5132448;27;20055;-69
2021/12/23 05:07:17;;;;;;;29.92;17.40;;;;;;;;;;5126878;27;20047;-69
2021/12/23 05:09:44;;;;;;;28.45;17.90;;;;;;;;;;5125970;27;20056;-69
2021/12/23 05:12:11;;;;;;;29.08;17.20;;;;;;;;;;5124439;27;20055;-69
2021/12/23 05:14:37;;;;;;;26.58;17.17;;;;;;;;;;5134703;27;20058;-69
2021/12/23 05:17:04;;;;;;;28.40;18.98;;;;;;;;;;5122716;27;20052;-69
2021/12/23 05:19:30;;;;;;;31.60;18.25;;;;;;;;;;5131398;27;20059;-68
2021/12/23 05:21:56;;;;;;;34.90;18.20;;;;;;;;;;5130382;27;20054;-70
2021/12/23 05:24:23;;;;;;;33.15;18.42;;;;;;;;;;5129324;27;21022;-70
2021/12/23 05:26:49;;;;;;;32.25;18.67;;;;;;;;;;5118412;27;20514;-70
2021/12/23 05:29:16;;;;;;;32.70;18.70;;;;;;;;;;5121610;27;20044;-70
2021/12/23 05:31:42;;;;;;;32.40;18.95;;;;;;;;;;5134451;27;20056;-70
2021/12/23 05:34:08;;;;;;;37.80;20.90;;;;;;;;;;5134219;27;20083;-69
2021/12/23 05:36:35;;;;;;;46.50;24.27;;;;;;;;;;5133779;27;20051;-71
2021/12/23 05:39:01;;;;;;;42.38;23.08;;;;;;;;;;5133964;27;20051;-71
2021/12/23 05:41:28;;;;;;;47.95;23.15;;;;;;;;;;5121647;27;20427;-68
2021/12/23 05:43:55;;;;;;;47.03;22.63;;;;;;;;;;5133774;27;20142;-68
2021/12/23 05:46:22;;;;;;;44.42;23.52;;;;;;;;;;5128319;27;20052;-69
2021/12/23 05:48:48;;;;;;;50.30;25.20;;;;;;;;;;5129579;27;20063;-68
2021/12/23 05:51:14;;;;;;;52.95;26.05;;;;;;;;;;5127776;27;20051;-68
2021/12/23 05:53:41;;;;;;;50.25;25.23;;;;;;;;;;5115034;27;20052;-68
2021/12/23 05:56:07;;;;;;;58.67;25.10;;;;;;;;;;5133913;27;20144;-68
2021/12/23 05:58:35;;;;;;;47.47;23.63;;;;;;;;;;5103719;28;20056;-68
2021/12/23 06:01:01;;;;;;;56.33;24.77;;;;;;;;;;5100858;27;20052;-68
2021/12/23 06:03:27;;;;;;;55.45;25.92;;;;;;;;;;5129438;27;20052;-67
2021/12/23 06:05:54;;;;;;;46.42;24.48;;;;;;;;;;5133142;27;20081;-69
2021/12/23 06:08:20;;;;;;;49.40;24.30;;;;;;;;;;5125545;27;20058;-69
2021/12/23 06:10:46;;;;;;;50.55;24.77;;;;;;;;;;5133601;27;20138;-68
2021/12/23 06:13:13;;;;;;;48.42;24.35;;;;;;;;;;5133996;27;20056;-69
2021/12/23 06:15:39;;;;;;;50.10;23.80;;;;;;;;;;5130674;27;20047;-69
2021/12/23 06:18:05;;;;;;;48.90;23.73;;;;;;;;;;5133963;27;20051;-69
2021/12/23 06:20:31;;;;;;;46.65;24.45;;;;;;;;;;5132651;27;20052;-68
2021/12/23 06:22:58;;;;;;;47.55;24.33;;;;;;;;;;5132721;27;20048;-68
2021/12/23 06:25:24;;;;;;;47.72;23.33;;;;;;;;;;5131197;27;20051;-69
2021/12/23 06:27:50;;;;;;;45.72;22.48;;;;;;;;;;5133464;27;20508;-68
2021/12/23 06:30:18;;;;;;;51.63;24.83;;;;;;;;;;5132496;27;20063;-68
2021/12/23 06:32:52;;;;;;;41.50;22.50;;;;;;;;;;5132689;27;20052;-68
2021/12/23 06:35:19;;;;;;;41.00;22.90;;;;;;;;;;5133462;27;20040;-68
2021/12/23 06:37:45;;;;;;;39.78;22.13;;;;;;;;;;5133703;27;20518;-70
2021/12/23 06:40:12;;;;;;;42.17;22.50;;;;;;;;;;5132573;27;20059;-67
2021/12/23 06:42:38;;;;;;;46.58;23.77;;;;;;;;;;5133254;27;20059;-68
2021/12/23 06:45:06;;;;;;;40.47;21.77;;;;;;;;;;5131498;27;20055;-68
2021/12/23 06:47:35;;;;;;;47.28;23.77;;;;;;;;;;5133277;27;20058;-68
2021/12/23 06:50:03;;;;;;;45.83;23.48;;;;;;;;;;5133420;27;20056;-68
2021/12/23 06:52:30;;;;;;;41.08;23.05;;;;;;;;;;5135138;27;20062;-65
2021/12/23 06:54:57;;;;;;;43.00;24.77;;;;;;;;;;5136657;27;20050;-69
2021/12/23 06:57:25;;;;;;;46.70;24.65;;;;;;;;;;5137316;27;20055;-69
2021/12/23 06:59:51;;;;;;;43.50;23.55;;;;;;;;;;5118711;27;20087;-70
2021/12/23 07:02:18;;;;;;;43.88;22.92;;;;;;;;;;5136582;27;20075;-70
2021/12/23 07:04:45;;;;;;;44.70;24.67;;;;;;;;;;5136871;27;20056;-69
2021/12/23 07:07:19;;;;;;;45.03;23.33;;;;;;;;;;5136813;27;20059;-69
2021/12/23 07:09:45;;;;;;;40.58;22.50;;;;;;;;;;5136480;27;20055;-69
2021/12/23 07:12:12;;;;;;;42.42;23.05;;;;;;;;;;5136882;27;20427;-69
2021/12/23 07:14:39;;;;;;;48.85;24.17;;;;;;;;;;5135824;27;20043;-69
2021/12/23 07:17:07;;;;;;;45.47;24.33;;;;;;;;;;5137053;27;20060;-69
2021/12/23 07:19:34;;;;;;;45.97;24.35;;;;;;;;;;5136736;27;20051;-69
2021/12/23 07:22:00;;;;;;;43.40;24.33;;;;;;;;;;5136311;27;20127;-69
2021/12/23 07:24:26;;;;;;;49.05;24.63;;;;;;;;;;5136378;27;20052;-69
2021/12/23 07:26:53;;;;;;;45.05;23.10;;;;;;;;;;5136129;27;20058;-69
2021/12/23 07:29:20;;;;;;;47.30;23.60;;;;;;;;;;5135630;27;20055;-69
2021/12/23 07:31:46;;;;;;;44.22;23.67;;;;;;;;;;5134951;27;20051;-70
2021/12/23 07:34:12;;;;;;;43.95;23.40;;;;;;;;;;5136307;27;20047;-70
2021/12/23 07:36:39;;;;;;;41.85;22.25;;;;;;;;;;5135942;27;20058;-70
2021/12/23 07:39:09;;;;;;;46.17;23.90;;;;;;;;;;5135819;27;20048;-70
2021/12/23 07:41:56;;;;;;;46.20;25.38;;;;;;;;;;5131658;27;20503;-70
2021/12/23 07:44:34;;;;;;;43.22;23.58;;;;;;;;;;5134282;27;20052;-70
2021/12/23 07:47:01;;;;;;;45.33;23.13;;;;;;;;;;5136023;27;20469;-69
2021/12/23 07:49:27;;;;;;;48.40;24.55;;;;;;;;;;5135766;27;20048;-69
2021/12/23 07:51:54;;;;;;;46.22;25.20;;;;;;;;;;5135376;27;20060;-68
2021/12/23 07:54:20;;;;;;;44.15;23.50;;;;;;;;;;5135780;27;20052;-69
2021/12/23 07:56:47;;;;;;;49.83;25.58;;;;;;;;;;5135490;27;20509;-69
2021/12/23 07:59:13;;;;;;;45.05;24.20;;;;;;;;;;5135126;27;20138;-70
2021/12/23 08:01:40;;;;;;;47.75;23.73;;;;;;;;;;5135353;27;20040;-71
2021/12/23 08:04:07;;;;;;;44.22;24.92;;;;;;;;;;5134337;27;20055;-69
2021/12/23 08:06:33;;;;;;;46.58;24.98;;;;;;;;;;5135705;27;20058;-70
2021/12/23 08:08:59;;;;;;;45.90;24.60;;;;;;;;;;5134799;27;20502;-71
2021/12/23 08:11:25;;;;;;;43.30;23.80;;;;;;;;;;5134190;27;20047;-70
2021/12/23 08:13:52;;;;;;;48.90;27.25;;;;;;;;;;5135228;27;20058;-70
2021/12/23 08:16:18;;;;;;;49.33;25.67;;;;;;;;;;5134725;27;20056;-69
2021/12/23 08:18:44;;;;;;;49.30;25.60;;;;;;;;;;5136157;27;20508;-70
2021/12/23 08:21:11;;;;;;;46.83;24.60;;;;;;;;;;5135373;27;20058;-69
2021/12/23 08:23:37;;;;;;;48.63;26.38;;;;;;;;;;5135385;27;20056;-72
2021/12/23 08:26:10;;;;;;;51.17;25.17;;;;;;;;;;5135579;27;20138;-69
2021/12/23 08:28:37;;;;;;;49.05;26.48;;;;;;;;;;5134721;27;20059;-69
2021/12/23 08:31:03;;;;;;;51.90;25.67;;;;;;;;;;5113297;28;20487;-69
2021/12/23 08:33:29;;;;;;;51.13;27.20;;;;;;;;;;5114776;28;20044;-69
2021/12/23 08:35:56;;;;;;;48.38;26.48;;;;;;;;;;5128960;27;20055;-71
2021/12/23 08:38:22;;;;;;;50.63;26.45;;;;;;;;;;5134112;27;20059;-69
2021/12/23 08:40:48;;;;;;;47.22;24.80;;;;;;;;;;5134901;27;20043;-71
2021/12/23 08:43:14;;;;;;;56.67;26.83;;;;;;;;;;5135199;27;20058;-71
2021/12/23 08:45:41;;;;;;;47.28;23.92;;;;;;;;;;5120447;27;20086;-68
2021/12/23 08:48:07;;;;;;;50.13;24.58;;;;;;;;;;5127805;27;20056;-71
2021/12/23 08:50:34;;;;;;;50.80;26.75;;;;;;;;;;5133862;27;20047;-71
2021/12/23 08:53:00;;;;;;;51.78;25.90;;;;;;;;;;5129771;27;20525;-71
2021/12/23 08:55:27;;;;;;;46.03;23.73;;;;;;;;;;5150155;27;20426;-71
2021/12/23 08:57:55;;;;;;;51.55;25.58;;;;;;;;;;5133462;27;20491;-69
2021/12/23 09:00:21;;;;;;;49.05;24.20;;;;;;;;;;5134224;27;20047;-71
2021/12/23 09:02:48;;;;;;;44.92;23.00;;;;;;;;;;5134979;27;20591;-71
2021/12/23 09:05:17;;;;;;;44.15;23.42;;;;;;;;;;5134111;27;20052;-71
2021/12/23 09:07:43;;;;;;;46.10;24.75;;;;;;;;;;5134849;27;20050;-71
2021/12/23 09:10:10;;;;;;;47.08;24.50;;;;;;;;;;5130018;27;20055;-71
2021/12/23 09:12:36;;;;;;;48.63;24.13;;;;;;;;;;5134202;27;20588;-71
2021/12/23 09:15:03;;;;;;;44.15;23.77;;;;;;;;;;5133957;27;20139;-70
2021/12/23 09:17:30;;;;;;;46.00;24.58;;;;;;;;;;5133960;27;20058;-70
2021/12/23 09:19:57;;;;;;;48.80;25.52;;;;;;;;;;5134237;27;20403;-71
2021/12/23 09:22:23;;;;;;;49.60;25.10;;;;;;;;;;5134568;27;20134;-72
2021/12/23 09:24:52;;;;;;;48.50;24.52;;;;;;;;;;5134495;27;20051;-69
2021/12/23 09:27:38;;;;;;;50.38;24.85;;;;;;;;;;5134003;27;20056;-70
2021/12/23 09:32:52;;;;;;;51.67;24.83;;;;;;;;;;5133003;27;20572;-69
2021/12/23 09:35:38;;;;;;;47.75;23.17;;;;;;;;;;5131897;27;20048;-71
2021/12/23 09:38:05;;;;;;;43.15;21.98;;;;;;;;;;5133194;27;20143;-70
2021/12/23 09:40:33;;;;;;;49.13;24.75;;;;;;;;;;5134032;27;20475;-69
2021/12/23 09:43:00;;;;;;;49.60;24.52;;;;;;;;;;5122584;27;20058;-69
2021/12/23 09:45:28;;;;;;;44.00;23.50;;;;;;;;;;5134340;27;20143;-71
2021/12/23 09:47:56;;;;;;;49.40;25.52;;;;;;;;;;5134150;27;20052;-69
2021/12/23 09:50:24;;;;;;;47.80;24.13;;;;;;;;;;5126474;27;20418;-69
2021/12/23 09:52:51;;;;;;;49.67;24.33;;;;;;;;;;5133807;27;20048;-71
2021/12/23 09:55:19;;;;;;;48.13;24.45;;;;;;;;;;5128452;27;20371;-68
2021/12/23 09:57:49;;;;;;;51.08;24.90;;;;;;;;;;5132850;27;20423;-70
2021/12/23 10:00:18;;;;;;;43.92;22.60;;;;;;;;;;5116577;27;20043;-69
2021/12/23 10:02:44;;;;;;;46.58;24.23;;;;;;;;;;5134194;27;20071;-68
2021/12/23 10:05:17;;;;;;;48.53;24.45;;;;;;;;;;5133223;27;20055;-69
2021/12/23 10:07:45;;;;;;;50.50;23.67;;;;;;;;;;5133127;27;20050;-71
2021/12/23 10:10:26;;;;;;;46.97;24.40;;;;;;;;;;5132177;27;20078;-68
2021/12/23 10:30:16;;;;;;;45.17;24.33;;;;;;;;;;5136494;27;20043;-70
2021/12/23 10:33:08;;;;;;;47.97;23.98;;;;;;;;;;5135190;27;20058;-68
2021/12/23 10:38:27;;;;;;;43.40;22.92;;;;;;;;;;5137217;27;20521;-70
2021/12/23 10:40:56;;;;;;;45.28;22.58;;;;;;;;;;5131107;27;20051;-70
2021/12/23 10:43:27;;;;;;;48.30;23.10;;;;;;;;;;5135212;27;20123;-69
2021/12/23 10:45:56;;;;;;;45.88;23.50;;;;;;;;;;5136644;27;20138;-70
2021/12/23 10:48:25;;;;;;;44.20;21.95;;;;;;;;;;5122974;27;20458;-69
2021/12/23 10:50:58;;;;;;;46.20;23.25;;;;;;;;;;5123961;27;20050;-70
2021/12/23 10:53:43;;;;;;;43.35;22.98;;;;;;;;;;5136598;27;20060;-70
2021/12/23 10:59:00;;;;;;;44.08;23.13;;;;;;;;;;5130007;27;20051;-70
2021/12/23 11:01:26;;;;;;;46.92;24.48;;;;;;;;;;5121521;27;20142;-69
2021/12/23 11:03:58;;;;;;;46.67;24.35;;;;;;;;;;5135288;27;20070;-69
2021/12/23 11:06:32;;;;;;;49.50;24.30;;;;;;;;;;5133305;27;20051;-70
2021/12/23 11:09:16;;;;;;;44.22;22.73;;;;;;;;;;5133495;27;20143;-71
2021/12/23 11:28:32;;;;;;;41.42;20.73;;;;;;;;;;5134226;27;20138;-72
2021/12/23 11:41:51;;;;;;;45.78;21.92;;;;;;;;;;5128197;27;20063;-70
2021/12/23 11:44:18;;;;;;;42.95;22.05;;;;;;;;;;5135526;27;20047;-71
2021/12/23 11:46:52;;;;;;;47.80;22.73;;;;;;;;;;5130298;27;20059;-70
2021/12/23 11:49:19;;;;;;;42.45;20.70;;;;;;;;;;5131739;27;20638;-70
2021/12/23 11:51:56;;;;;;;40.35;20.45;;;;;;;;;;5127630;27;20077;-71
2021/12/23 11:54:32;;;;;;;40.58;21.55;;;;;;;;;;5119812;27;20179;-70
2021/12/23 11:57:19;;;;;;;39.22;20.83;;;;;;;;;;5132171;27;20052;-69
2021/12/23 12:00:19;;;;;;;46.20;23.25;;;;;;;;;;5134999;27;20130;-72
2021/12/23 12:02:59;;;;;;;40.65;21.20;;;;;;;;;;5129178;27;20125;-71
2021/12/23 12:05:25;;;;;;;44.13;22.50;;;;;;;;;;5127574;27;20411;-70
2021/12/23 12:08:24;;;;;;;42.95;23.05;;;;;;;;;;5111870;27;20075;-70
2021/12/23 12:10:50;;;;;;;42.50;22.30;;;;;;;;;;5075826;27;20506;-74
2021/12/23 12:13:17;;;;;;;46.17;23.65;;;;;;;;;;5125648;27;20052;-70
2021/12/23 12:15:48;;;;;;;40.63;22.70;;;;;;;;;;5122576;27;20474;-72
2021/12/23 12:18:22;;;;;;;40.20;21.50;;;;;;;;;;5121694;27;20059;-76
2021/12/23 12:20:52;;;;;;;42.20;20.05;;;;;;;;;;5133133;27;20489;-76
2021/12/23 12:23:20;;;;;;;43.90;21.73;;;;;;;;;;5130198;27;20050;-74
2021/12/23 12:25:48;;;;;;;40.58;20.33;;;;;;;;;;5119502;27;20055;-71
2021/12/23 12:28:19;;;;;;;42.67;21.15;;;;;;;;;;5123133;27;20139;-74
2021/12/23 12:30:53;;;;;;;44.78;23.27;;;;;;;;;;5125260;27;20564;-73
2021/12/23 12:33:23;;;;;;;37.47;21.77;;;;;;;;;;5125488;27;20157;-72
2021/12/23 12:35:49;;;;;;;42.15;22.42;;;;;;;;;;5130888;27;22119;-71
2021/12/23 12:38:21;;;;;;;44.20;23.33;;;;;;;;;;5104797;27;20052;-73
2021/12/23 12:40:54;;;;;;;44.60;21.75;;;;;;;;;;5117773;27;20505;-71
2021/12/23 12:43:31;;;;;;;42.30;22.92;;;;;;;;;;5127293;27;20048;-74
2021/12/23 12:45:58;;;;;;;41.40;21.55;;;;;;;;;;5125148;27;20517;-71
2021/12/23 12:48:43;;;;;;;45.17;22.23;;;;;;;;;;5134655;27;20496;-73
2021/12/23 12:51:19;;;;;;;44.70;23.30;;;;;;;;;;5130189;27;20480;-72
2021/12/23 12:54:02;;;;;;;40.85;20.60;;;;;;;;;;5128820;27;20643;-72
2021/12/23 12:56:29;;;;;;;40.97;22.02;;;;;;;;;;5130551;27;20541;-73
2021/12/23 12:58:56;;;;;;;45.67;22.05;;;;;;;;;;5126430;27;20506;-73
2021/12/23 13:01:29;;;;;;;42.28;22.35;;;;;;;;;;5131360;27;20052;-72
2021/12/23 13:03:56;;;;;;;44.78;22.60;;;;;;;;;;5133838;27;20048;-73
2021/12/23 13:06:26;;;;;;;47.13;23.17;;;;;;;;;;5127986;27;20048;-73
2021/12/23 13:09:02;;;;;;;41.17;20.88;;;;;;;;;;5127372;27;20071;-72
2021/12/23 13:11:28;;;;;;;45.63;21.42;;;;;;;;;;5124453;27;20553;-73
2021/12/23 13:14:00;;;;;;;45.05;22.58;;;;;;;;;;5131974;27;20052;-72
2021/12/23 13:16:28;;;;;;;47.55;22.92;;;;;;;;;;5133426;27;20059;-72
2021/12/23 13:19:13;;;;;;;44.92;22.83;;;;;;;;;;5134324;27;20455;-72
2021/12/23 13:21:42;;;;;;;39.20;19.70;;;;;;;;;;5130167;27;20154;-73
2021/12/23 13:24:12;;;;;;;44.35;23.13;;;;;;;;;;5133473;27;20086;-74
2021/12/23 13:26:40;;;;;;;43.33;20.88;;;;;;;;;;5132981;27;20051;-73
2021/12/23 13:29:08;;;;;;;42.40;22.25;;;;;;;;;;5133601;27;20059;-73
2021/12/23 13:31:37;;;;;;;41.47;21.27;;;;;;;;;;5134244;27;20083;-73
2021/12/23 13:34:03;;;;;;;43.50;22.17;;;;;;;;;;5123849;27;20079;-74
2021/12/23 13:36:44;;;;;;;48.03;22.23;;;;;;;;;;5129362;27;20555;-72
2021/12/23 13:39:12;;;;;;;39.45;21.65;;;;;;;;;;5126519;27;20105;-72
2021/12/23 13:41:39;;;;;;;43.97;23.55;;;;;;;;;;5133795;27;20133;-70
2021/12/23 13:44:15;;;;;;;46.78;23.52;;;;;;;;;;5133830;27;20075;-72
2021/12/23 13:46:46;;;;;;;45.20;23.42;;;;;;;;;;5133155;27;20097;-71
2021/12/23 13:49:12;;;;;;;43.03;22.88;;;;;;;;;;5130940;27;20052;-72
2021/12/23 13:51:40;;;;;;;43.55;23.45;;;;;;;;;;5132408;27;20332;-70
2021/12/23 13:54:09;;;;;;;42.83;23.17;;;;;;;;;;5132189;27;20117;-71
2021/12/23 13:56:39;;;;;;;44.20;23.35;;;;;;;;;;5129539;27;20112;-71
2021/12/23 13:59:08;;;;;;;53.38;24.77;;;;;;;;;;5129242;27;20563;-71
2021/12/23 14:01:52;;;;;;;44.13;22.75;;;;;;;;;;5129334;27;20521;-71
2021/12/23 14:04:27;;;;;;;45.78;23.02;;;;;;;;;;5134963;27;20091;-71
2021/12/23 14:06:55;;;;;;;46.22;23.98;;;;;;;;;;5136405;27;20062;-72
2021/12/23 14:09:32;;;;;;;44.40;23.20;;;;;;;;;;5136990;27;20272;-72
2021/12/23 14:12:00;;;;;;;43.05;22.08;;;;;;;;;;5137599;27;20047;-71
2021/12/23 14:14:27;;;;;;;44.88;23.38;;;;;;;;;;5136572;27;20142;-72
2021/12/23 14:16:55;;;;;;;43.88;22.17;;;;;;;;;;5136715;27;20503;-72
2021/12/23 14:19:29;;;;;;;44.88;22.88;;;;;;;;;;5136857;27;20056;-73
2021/12/23 14:24:44;;;;;;;38.55;21.50;;;;;;;;;;5117059;28;20078;-71
2021/12/23 14:27:12;;;;;;;45.30;24.13;;;;;;;;;;5132214;27;20043;-74
2021/12/23 14:29:40;;;;;;;43.38;22.55;;;;;;;;;;5117462;27;20131;-71
2021/12/23 14:32:07;;;;;;;45.10;21.67;;;;;;;;;;5136403;27;20073;-72
2021/12/23 14:34:33;;;;;;;44.78;23.25;;;;;;;;;;5118293;27;20052;-72
2021/12/23 14:37:00;;;;;;;44.70;23.40;;;;;;;;;;5136041;27;20134;-73
2021/12/23 14:39:26;;;;;;;44.60;21.40;;;;;;;;;;5135514;27;20553;-72
2021/12/23 14:42:00;;;;;;;43.00;23.60;;;;;;;;;;5136184;27;20076;-73
2021/12/23 14:44:30;;;;;;;39.53;22.58;;;;;;;;;;5136719;27;20056;-71
2021/12/23 14:47:04;;;;;;;45.85;23.33;;;;;;;;;;5136345;27;20054;-72
2021/12/23 14:52:25;;;;;;;45.40;24.20;;;;;;;;;;5135782;27;20047;-72
2021/12/23 14:54:55;;;;;;;46.65;23.30;;;;;;;;;;5133901;27;20055;-76
2021/12/23 14:57:29;;;;;;;47.90;24.17;;;;;;;;;;5129848;27;20047;-72
2021/12/23 14:59:57;;;;;;;41.53;22.17;;;;;;;;;;5134570;27;20147;-73
2021/12/23 15:02:29;;;;;;;44.95;23.13;;;;;;;;;;5135635;27;20499;-72
2021/12/23 15:05:03;;;;;;;55.90;24.30;;;;;;;;;;5134034;27;20051;-71
2021/12/23 15:07:50;;;;;;;45.00;22.77;;;;;;;;;;5130874;27;20052;-72
2021/12/23 15:10:35;;;;;;;47.85;23.90;;;;;;;;;;5111722;27;20051;-70
2021/12/23 15:13:35;;;;;;;46.25;24.70;;;;;;;;;;5106040;27;20044;-72
2021/12/23 15:16:10;;;;;;;41.17;22.17;;;;;;;;;;5091797;28;20045;-72
2021/12/23 15:21:11;;;;;;;45.08;23.13;;;;;;;;;;5106668;27;20095;-73
2021/12/23 15:23:43;;;;;;;45.22;25.55;;;;;;;;;;5112936;28;20059;-72
2021/12/23 15:26:20;;;;;;;49.50;24.77;;;;;;;;;;5101582;27;20067;-71
2021/12/23 15:29:05;;;;;;;43.80;24.20;;;;;;;;;;5104905;28;20044;-72
2021/12/23 15:31:32;;;;;;;46.25;24.10;;;;;;;;;;5108857;28;20103;-71
2021/12/23 15:33:58;;;;;;;50.58;23.73;;;;;;;;;;5097976;28;20412;-70
2021/12/23 15:36:24;;;;;;;51.42;25.25;;;;;;;;;;5110328;28;20044;-71